sensor_id;sensor_type;location;lat;lon;timestamp;P1;durP1;ratioP1;P2;durP2;ratioP2
71767;SDS011;59604;52.138;5.446;2022-10-19T00:00:23;9.13;;;3.63;;
71767;SDS011;59604;52.138;5.446;2022-10-19T00:02:50;9.50;;;3.92;;
71767;SDS011;59604;52.138;5.446;2022-10-19T00:05:17;10.25;;;4.45;;
71767;SDS011;59604;52.138;5.446;2022-10-19T00:07:43;9.88;;;4.32;;
71767;SDS011;59604;52.138;5.446;2022-10-19T00:10:10;9.95;;;3.70;;
71767;SDS011;59604;52.138;5.446;2022-10-19T00:12:36;7.78;;;3.47;;
71767;SDS011;59604;52.138;5.446;2022-10-19T00:15:04;8.95;;;4.00;;
71767;SDS011;59604;52.138;5.446;2022-10-19T00:17:32;8.25;;;3.95;;
71767;SDS011;59604;52.138;5.446;2022-10-19T00:20:00;9.82;;;3.58;;
71767;SDS011;59604;52.138;5.446;2022-10-19T00:22:26;6.82;;;3.47;;
71767;SDS011;59604;52.138;5.446;2022-10-19T00:24:54;7.32;;;3.20;;
71767;SDS011;59604;52.138;5.446;2022-10-19T00:27:21;8.05;;;3.38;;
71767;SDS011;59604;52.138;5.446;2022-10-19T00:29:48;6.10;;;3.20;;
71767;SDS011;59604;52.138;5.446;2022-10-19T00:32:14;6.05;;;3.30;;
71767;SDS011;59604;52.138;5.446;2022-10-19T00:34:41;10.18;;;3.92;;
71767;SDS011;59604;52.138;5.446;2022-10-19T00:37:07;8.30;;;3.40;;
71767;SDS011;59604;52.138;5.446;2022-10-19T00:39:34;10.00;;;3.75;;
71767;SDS011;59604;52.138;5.446;2022-10-19T00:42:00;16.60;;;4.03;;
71767;SDS011;59604;52.138;5.446;2022-10-19T00:46:53;11.48;;;4.03;;
71767;SDS011;59604;52.138;5.446;2022-10-19T00:49:27;10.02;;;3.78;;
71767;SDS011;59604;52.138;5.446;2022-10-19T00:52:02;9.15;;;3.90;;
71767;SDS011;59604;52.138;5.446;2022-10-19T00:54:31;10.95;;;3.70;;
71767;SDS011;59604;52.138;5.446;2022-10-19T00:56:58;8.60;;;3.85;;
71767;SDS011;59604;52.138;5.446;2022-10-19T00:59:25;10.57;;;3.72;;
71767;SDS011;59604;52.138;5.446;2022-10-19T01:01:57;9.32;;;4.00;;
71767;SDS011;59604;52.138;5.446;2022-10-19T01:04:24;8.40;;;4.18;;
71767;SDS011;59604;52.138;5.446;2022-10-19T01:06:52;9.32;;;3.92;;
71767;SDS011;59604;52.138;5.446;2022-10-19T01:09:19;10.70;;;4.43;;
71767;SDS011;59604;52.138;5.446;2022-10-19T01:22:42;10.77;;;4.43;;
71767;SDS011;59604;52.138;5.446;2022-10-19T01:36:15;8.18;;;3.92;;
71767;SDS011;59604;52.138;5.446;2022-10-19T01:41:57;8.27;;;3.67;;
71767;SDS011;59604;52.138;5.446;2022-10-19T01:47:01;7.10;;;3.55;;
71767;SDS011;59604;52.138;5.446;2022-10-19T01:49:43;8.90;;;3.72;;
71767;SDS011;59604;52.138;5.446;2022-10-19T01:52:17;6.70;;;3.50;;
71767;SDS011;59604;52.138;5.446;2022-10-19T01:54:46;6.72;;;3.40;;
71767;SDS011;59604;52.138;5.446;2022-10-19T01:57:18;9.95;;;3.50;;
71767;SDS011;59604;52.138;5.446;2022-10-19T01:59:49;7.15;;;3.40;;
71767;SDS011;59604;52.138;5.446;2022-10-19T02:02:16;8.07;;;3.38;;
71767;SDS011;59604;52.138;5.446;2022-10-19T02:04:45;8.43;;;3.50;;
71767;SDS011;59604;52.138;5.446;2022-10-19T02:07:14;13.93;;;3.67;;
71767;SDS011;59604;52.138;5.446;2022-10-19T02:09:41;10.43;;;3.75;;
71767;SDS011;59604;52.138;5.446;2022-10-19T02:12:08;6.63;;;3.55;;
71767;SDS011;59604;52.138;5.446;2022-10-19T02:14:38;6.55;;;3.33;;
71767;SDS011;59604;52.138;5.446;2022-10-19T02:17:08;6.93;;;3.70;;
71767;SDS011;59604;52.138;5.446;2022-10-19T02:19:39;8.82;;;3.60;;
71767;SDS011;59604;52.138;5.446;2022-10-19T02:24:34;8.88;;;3.78;;
71767;SDS011;59604;52.138;5.446;2022-10-19T02:27:01;8.70;;;3.45;;
71767;SDS011;59604;52.138;5.446;2022-10-19T02:29:31;10.77;;;3.90;;
71767;SDS011;59604;52.138;5.446;2022-10-19T02:31:59;9.10;;;3.88;;
71767;SDS011;59604;52.138;5.446;2022-10-19T02:34:26;6.75;;;3.75;;
71767;SDS011;59604;52.138;5.446;2022-10-19T02:36:53;7.88;;;4.10;;
71767;SDS011;59604;52.138;5.446;2022-10-19T02:39:20;8.40;;;3.83;;
71767;SDS011;59604;52.138;5.446;2022-10-19T02:44:23;7.57;;;3.90;;
71767;SDS011;59604;52.138;5.446;2022-10-19T02:47:01;7.65;;;3.67;;
71767;SDS011;59604;52.138;5.446;2022-10-19T02:49:32;7.63;;;3.45;;
71767;SDS011;59604;52.138;5.446;2022-10-19T02:52:02;6.45;;;3.20;;
71767;SDS011;59604;52.138;5.446;2022-10-19T02:54:30;9.48;;;3.13;;
71767;SDS011;59604;52.138;5.446;2022-10-19T02:56:57;8.02;;;3.33;;
71767;SDS011;59604;52.138;5.446;2022-10-19T02:59:24;9.23;;;3.60;;
71767;SDS011;59604;52.138;5.446;2022-10-19T03:01:51;8.85;;;3.47;;
71767;SDS011;59604;52.138;5.446;2022-10-19T03:04:18;7.07;;;3.30;;
71767;SDS011;59604;52.138;5.446;2022-10-19T03:06:44;6.63;;;3.30;;
71767;SDS011;59604;52.138;5.446;2022-10-19T03:09:11;7.13;;;3.45;;
71767;SDS011;59604;52.138;5.446;2022-10-19T03:11:37;6.47;;;3.30;;
71767;SDS011;59604;52.138;5.446;2022-10-19T03:14:04;6.63;;;3.25;;
71767;SDS011;59604;52.138;5.446;2022-10-19T03:16:30;7.20;;;3.50;;
71767;SDS011;59604;52.138;5.446;2022-10-19T03:18:56;6.43;;;3.25;;
71767;SDS011;59604;52.138;5.446;2022-10-19T03:21:23;7.20;;;3.33;;
71767;SDS011;59604;52.138;5.446;2022-10-19T03:23:49;6.50;;;3.10;;
71767;SDS011;59604;52.138;5.446;2022-10-19T03:26:16;7.82;;;3.38;;
71767;SDS011;59604;52.138;5.446;2022-10-19T03:28:45;7.28;;;3.45;;
71767;SDS011;59604;52.138;5.446;2022-10-19T03:31:12;6.57;;;3.38;;
71767;SDS011;59604;52.138;5.446;2022-10-19T03:33:38;7.45;;;3.20;;
71767;SDS011;59604;52.138;5.446;2022-10-19T03:36:39;6.25;;;2.90;;
71767;SDS011;59604;52.138;5.446;2022-10-19T03:39:00;6.97;;;3.20;;
71767;SDS011;59604;52.138;5.446;2022-10-19T03:41:29;9.48;;;3.95;;
71767;SDS011;59604;52.138;5.446;2022-10-19T03:43:58;5.95;;;3.20;;
71767;SDS011;59604;52.138;5.446;2022-10-19T03:46:30;6.35;;;3.17;;
71767;SDS011;59604;52.138;5.446;2022-10-19T03:48:57;6.65;;;3.22;;
71767;SDS011;59604;52.138;5.446;2022-10-19T03:51:24;7.03;;;3.13;;
71767;SDS011;59604;52.138;5.446;2022-10-19T03:53:53;6.57;;;3.20;;
71767;SDS011;59604;52.138;5.446;2022-10-19T03:56:22;5.72;;;2.95;;
71767;SDS011;59604;52.138;5.446;2022-10-19T04:01:51;5.72;;;2.88;;
71767;SDS011;59604;52.138;5.446;2022-10-19T04:04:12;6.63;;;3.22;;
71767;SDS011;59604;52.138;5.446;2022-10-19T04:06:41;6.07;;;2.92;;
71767;SDS011;59604;52.138;5.446;2022-10-19T04:09:11;8.15;;;3.10;;
71767;SDS011;59604;52.138;5.446;2022-10-19T04:11:39;7.55;;;3.30;;
71767;SDS011;59604;52.138;5.446;2022-10-19T04:14:07;6.53;;;3.47;;
71767;SDS011;59604;52.138;5.446;2022-10-19T04:16:34;8.40;;;3.20;;
71767;SDS011;59604;52.138;5.446;2022-10-19T04:19:01;6.53;;;3.22;;
71767;SDS011;59604;52.138;5.446;2022-10-19T04:21:28;7.32;;;3.15;;
71767;SDS011;59604;52.138;5.446;2022-10-19T04:23:58;5.57;;;3.00;;
71767;SDS011;59604;52.138;5.446;2022-10-19T04:26:26;8.07;;;4.03;;
71767;SDS011;59604;52.138;5.446;2022-10-19T04:28:55;7.43;;;3.22;;
71767;SDS011;59604;52.138;5.446;2022-10-19T04:31:23;6.43;;;3.15;;
71767;SDS011;59604;52.138;5.446;2022-10-19T04:33:50;7.13;;;3.40;;
71767;SDS011;59604;52.138;5.446;2022-10-19T04:36:16;6.90;;;3.35;;
71767;SDS011;59604;52.138;5.446;2022-10-19T04:38:43;6.63;;;3.10;;
71767;SDS011;59604;52.138;5.446;2022-10-19T04:41:10;7.35;;;3.20;;
71767;SDS011;59604;52.138;5.446;2022-10-19T04:43:39;11.95;;;4.95;;
71767;SDS011;59604;52.138;5.446;2022-10-19T04:46:09;6.97;;;3.58;;
71767;SDS011;59604;52.138;5.446;2022-10-19T04:48:38;6.45;;;2.90;;
71767;SDS011;59604;52.138;5.446;2022-10-19T04:51:06;6.15;;;2.90;;
71767;SDS011;59604;52.138;5.446;2022-10-19T04:53:33;6.18;;;3.00;;
71767;SDS011;59604;52.138;5.446;2022-10-19T04:56:03;8.88;;;2.95;;
71767;SDS011;59604;52.138;5.446;2022-10-19T04:58:31;7.38;;;2.72;;
71767;SDS011;59604;52.138;5.446;2022-10-19T05:00:57;6.68;;;3.10;;
71767;SDS011;59604;52.138;5.446;2022-10-19T05:03:24;7.80;;;2.92;;
71767;SDS011;59604;52.138;5.446;2022-10-19T05:05:50;6.68;;;2.80;;
71767;SDS011;59604;52.138;5.446;2022-10-19T05:08:17;6.80;;;3.03;;
71767;SDS011;59604;52.138;5.446;2022-10-19T05:10:43;6.32;;;2.88;;
71767;SDS011;59604;52.138;5.446;2022-10-19T05:13:13;12.23;;;2.92;;
71767;SDS011;59604;52.138;5.446;2022-10-19T05:15:40;7.93;;;2.95;;
71767;SDS011;59604;52.138;5.446;2022-10-19T05:18:06;5.90;;;3.00;;
71767;SDS011;59604;52.138;5.446;2022-10-19T05:20:33;7.32;;;2.80;;
71767;SDS011;59604;52.138;5.446;2022-10-19T05:22:59;6.13;;;2.72;;
71767;SDS011;59604;52.138;5.446;2022-10-19T05:25:32;6.00;;;3.00;;
71767;SDS011;59604;52.138;5.446;2022-10-19T05:27:58;7.47;;;3.20;;
71767;SDS011;59604;52.138;5.446;2022-10-19T05:30:25;5.47;;;2.72;;
71767;SDS011;59604;52.138;5.446;2022-10-19T05:32:51;5.95;;;2.80;;
71767;SDS011;59604;52.138;5.446;2022-10-19T05:35:18;6.22;;;3.40;;
71767;SDS011;59604;52.138;5.446;2022-10-19T05:37:47;7.25;;;3.15;;
71767;SDS011;59604;52.138;5.446;2022-10-19T05:40:14;7.50;;;3.03;;
71767;SDS011;59604;52.138;5.446;2022-10-19T05:42:40;6.13;;;2.88;;
71767;SDS011;59604;52.138;5.446;2022-10-19T05:45:07;5.97;;;3.10;;
71767;SDS011;59604;52.138;5.446;2022-10-19T05:47:34;6.82;;;3.35;;
71767;SDS011;59604;52.138;5.446;2022-10-19T05:50:01;6.40;;;3.20;;
71767;SDS011;59604;52.138;5.446;2022-10-19T05:52:27;5.93;;;2.65;;
71767;SDS011;59604;52.138;5.446;2022-10-19T05:54:54;6.28;;;3.17;;
71767;SDS011;59604;52.138;5.446;2022-10-19T05:57:23;5.53;;;2.70;;
71767;SDS011;59604;52.138;5.446;2022-10-19T05:59:50;5.80;;;3.10;;
71767;SDS011;59604;52.138;5.446;2022-10-19T06:02:17;6.57;;;3.10;;
71767;SDS011;59604;52.138;5.446;2022-10-19T06:07:12;7.10;;;3.45;;
71767;SDS011;59604;52.138;5.446;2022-10-19T06:09:38;8.15;;;3.53;;
71767;SDS011;59604;52.138;5.446;2022-10-19T06:12:05;5.75;;;3.00;;
71767;SDS011;59604;52.138;5.446;2022-10-19T06:14:31;6.20;;;3.03;;
71767;SDS011;59604;52.138;5.446;2022-10-19T06:16:58;7.43;;;3.20;;
71767;SDS011;59604;52.138;5.446;2022-10-19T06:19:24;8.43;;;2.78;;
71767;SDS011;59604;52.138;5.446;2022-10-19T06:21:51;6.63;;;2.58;;
71767;SDS011;59604;52.138;5.446;2022-10-19T06:24:17;8.15;;;3.17;;
71767;SDS011;59604;52.138;5.446;2022-10-19T06:26:44;6.88;;;2.67;;
71767;SDS011;59604;52.138;5.446;2022-10-19T06:29:10;4.93;;;2.50;;
71767;SDS011;59604;52.138;5.446;2022-10-19T06:31:37;6.63;;;3.20;;
71767;SDS011;59604;52.138;5.446;2022-10-19T06:34:04;7.30;;;3.40;;
71767;SDS011;59604;52.138;5.446;2022-10-19T06:36:31;6.35;;;2.83;;
71767;SDS011;59604;52.138;5.446;2022-10-19T06:38:58;7.00;;;3.10;;
71767;SDS011;59604;52.138;5.446;2022-10-19T06:41:27;5.72;;;2.60;;
71767;SDS011;59604;52.138;5.446;2022-10-19T06:43:55;6.05;;;2.80;;
71767;SDS011;59604;52.138;5.446;2022-10-19T06:46:23;6.60;;;3.00;;
71767;SDS011;59604;52.138;5.446;2022-10-19T06:51:18;5.88;;;2.60;;
71767;SDS011;59604;52.138;5.446;2022-10-19T06:53:45;9.25;;;3.10;;
71767;SDS011;59604;52.138;5.446;2022-10-19T06:56:12;6.07;;;3.00;;
71767;SDS011;59604;52.138;5.446;2022-10-19T06:58:39;7.32;;;2.92;;
71767;SDS011;59604;52.138;5.446;2022-10-19T07:01:07;8.27;;;3.10;;
71767;SDS011;59604;52.138;5.446;2022-10-19T07:03:35;5.63;;;2.80;;
71767;SDS011;59604;52.138;5.446;2022-10-19T07:06:03;7.18;;;2.90;;
71767;SDS011;59604;52.138;5.446;2022-10-19T07:08:32;8.77;;;3.03;;
71767;SDS011;59604;52.138;5.446;2022-10-19T07:11:00;7.78;;;2.90;;
71767;SDS011;59604;52.138;5.446;2022-10-19T07:13:30;7.32;;;3.15;;
71767;SDS011;59604;52.138;5.446;2022-10-19T07:15:57;6.95;;;3.00;;
71767;SDS011;59604;52.138;5.446;2022-10-19T07:18:30;7.97;;;3.10;;
71767;SDS011;59604;52.138;5.446;2022-10-19T07:20:59;7.50;;;2.85;;
71767;SDS011;59604;52.138;5.446;2022-10-19T07:23:27;10.90;;;2.92;;
71767;SDS011;59604;52.138;5.446;2022-10-19T07:25:55;7.45;;;2.50;;
71767;SDS011;59604;52.138;5.446;2022-10-19T07:28:27;7.78;;;2.83;;
71767;SDS011;59604;52.138;5.446;2022-10-19T07:30:54;5.90;;;2.70;;
71767;SDS011;59604;52.138;5.446;2022-10-19T07:33:21;9.45;;;3.08;;
71767;SDS011;59604;52.138;5.446;2022-10-19T07:35:48;8.35;;;3.05;;
71767;SDS011;59604;52.138;5.446;2022-10-19T07:38:15;7.63;;;3.00;;
71767;SDS011;59604;52.138;5.446;2022-10-19T07:40:42;12.88;;;3.30;;
71767;SDS011;59604;52.138;5.446;2022-10-19T07:43:12;7.95;;;3.17;;
71767;SDS011;59604;52.138;5.446;2022-10-19T07:45:39;6.43;;;2.80;;
71767;SDS011;59604;52.138;5.446;2022-10-19T07:48:05;9.88;;;2.90;;
71767;SDS011;59604;52.138;5.446;2022-10-19T07:50:32;7.35;;;2.80;;
71767;SDS011;59604;52.138;5.446;2022-10-19T07:52:58;8.13;;;3.08;;
71767;SDS011;59604;52.138;5.446;2022-10-19T07:55:25;8.60;;;3.22;;
71767;SDS011;59604;52.138;5.446;2022-10-19T07:57:51;7.50;;;3.17;;
71767;SDS011;59604;52.138;5.446;2022-10-19T08:00:18;8.73;;;3.53;;
71767;SDS011;59604;52.138;5.446;2022-10-19T08:02:44;8.55;;;3.22;;
71767;SDS011;59604;52.138;5.446;2022-10-19T08:05:25;11.32;;;3.33;;
71767;SDS011;59604;52.138;5.446;2022-10-19T08:07:51;11.30;;;3.67;;
71767;SDS011;59604;52.138;5.446;2022-10-19T08:10:18;9.35;;;3.50;;
71767;SDS011;59604;52.138;5.446;2022-10-19T08:12:44;8.88;;;3.30;;
71767;SDS011;59604;52.138;5.446;2022-10-19T08:15:11;10.00;;;3.30;;
71767;SDS011;59604;52.138;5.446;2022-10-19T08:17:37;8.52;;;3.20;;
71767;SDS011;59604;52.138;5.446;2022-10-19T08:20:05;7.53;;;2.90;;
71767;SDS011;59604;52.138;5.446;2022-10-19T08:22:32;11.52;;;2.92;;
71767;SDS011;59604;52.138;5.446;2022-10-19T08:25:00;7.93;;;2.67;;
71767;SDS011;59604;52.138;5.446;2022-10-19T08:27:29;7.63;;;2.63;;
71767;SDS011;59604;52.138;5.446;2022-10-19T08:29:56;10.40;;;2.75;;
71767;SDS011;59604;52.138;5.446;2022-10-19T08:32:22;8.85;;;3.05;;
71767;SDS011;59604;52.138;5.446;2022-10-19T08:34:49;10.55;;;3.10;;
71767;SDS011;59604;52.138;5.446;2022-10-19T08:37:15;8.43;;;2.80;;
71767;SDS011;59604;52.138;5.446;2022-10-19T08:40:02;9.48;;;2.90;;
71767;SDS011;59604;52.138;5.446;2022-10-19T08:43:12;9.52;;;2.92;;
71767;SDS011;59604;52.138;5.446;2022-10-19T08:50:41;8.27;;;2.47;;
71767;SDS011;59604;52.138;5.446;2022-10-19T08:56:32;7.63;;;2.53;;
71767;SDS011;59604;52.138;5.446;2022-10-19T09:07:35;8.27;;;3.30;;
71767;SDS011;59604;52.138;5.446;2022-10-19T09:12:59;7.07;;;2.63;;
71767;SDS011;59604;52.138;5.446;2022-10-19T09:15:33;8.00;;;2.67;;
71767;SDS011;59604;52.138;5.446;2022-10-19T09:21:00;9.38;;;2.90;;
71767;SDS011;59604;52.138;5.446;2022-10-19T09:23:36;9.10;;;2.78;;
71767;SDS011;59604;52.138;5.446;2022-10-19T09:26:09;8.48;;;2.65;;
71767;SDS011;59604;52.138;5.446;2022-10-19T09:28:42;11.60;;;4.13;;
71767;SDS011;59604;52.138;5.446;2022-10-19T09:31:11;10.55;;;3.03;;
71767;SDS011;59604;52.138;5.446;2022-10-19T09:33:45;7.13;;;2.85;;
71767;SDS011;59604;52.138;5.446;2022-10-19T09:36:21;8.77;;;3.00;;
71767;SDS011;59604;52.138;5.446;2022-10-19T09:39:10;8.90;;;2.70;;
71767;SDS011;59604;52.138;5.446;2022-10-19T09:41:50;9.63;;;2.50;;
71767;SDS011;59604;52.138;5.446;2022-10-19T09:44:20;7.28;;;2.50;;
71767;SDS011;59604;52.138;5.446;2022-10-19T09:46:56;7.60;;;2.40;;
71767;SDS011;59604;52.138;5.446;2022-10-19T09:49:46;8.52;;;2.22;;
71767;SDS011;59604;52.138;5.446;2022-10-19T09:52:23;10.35;;;2.40;;
71767;SDS011;59604;52.138;5.446;2022-10-19T09:55:03;7.15;;;2.10;;
71767;SDS011;59604;52.138;5.446;2022-10-19T09:57:32;9.40;;;2.15;;
71767;SDS011;59604;52.138;5.446;2022-10-19T10:02:47;6.63;;;2.30;;
71767;SDS011;59604;52.138;5.446;2022-10-19T10:05:15;8.55;;;1.95;;
71767;SDS011;59604;52.138;5.446;2022-10-19T10:07:42;6.63;;;1.88;;
71767;SDS011;59604;52.138;5.446;2022-10-19T10:10:19;6.15;;;1.92;;
71767;SDS011;59604;52.138;5.446;2022-10-19T10:12:56;5.30;;;1.50;;
71767;SDS011;59604;52.138;5.446;2022-10-19T10:15:25;6.50;;;1.35;;
71767;SDS011;59604;52.138;5.446;2022-10-19T10:17:54;5.10;;;1.33;;
71767;SDS011;59604;52.138;5.446;2022-10-19T10:20:29;4.22;;;1.25;;
71767;SDS011;59604;52.138;5.446;2022-10-19T10:23:02;6.32;;;1.40;;
71767;SDS011;59604;52.138;5.446;2022-10-19T10:25:31;6.97;;;1.25;;
71767;SDS011;59604;52.138;5.446;2022-10-19T10:28:01;4.82;;;1.25;;
71767;SDS011;59604;52.138;5.446;2022-10-19T10:30:40;6.40;;;1.40;;
71767;SDS011;59604;52.138;5.446;2022-10-19T10:33:08;5.70;;;1.30;;
71767;SDS011;59604;52.138;5.446;2022-10-19T10:36:04;9.10;;;1.67;;
71767;SDS011;59604;52.138;5.446;2022-10-19T10:38:38;4.90;;;1.30;;
71767;SDS011;59604;52.138;5.446;2022-10-19T10:41:13;6.18;;;1.38;;
71767;SDS011;59604;52.138;5.446;2022-10-19T10:43:59;6.30;;;1.30;;
71767;SDS011;59604;52.138;5.446;2022-10-19T10:46:33;5.53;;;1.20;;
71767;SDS011;59604;52.138;5.446;2022-10-19T10:49:03;4.32;;;1.33;;
71767;SDS011;59604;52.138;5.446;2022-10-19T10:54:26;4.45;;;1.17;;
71767;SDS011;59604;52.138;5.446;2022-10-19T10:59:55;6.97;;;1.52;;
71767;SDS011;59604;52.138;5.446;2022-10-19T11:05:14;5.97;;;1.20;;
71767;SDS011;59604;52.138;5.446;2022-10-19T11:07:43;8.20;;;1.70;;
71767;SDS011;59604;52.138;5.446;2022-10-19T11:10:20;8.00;;;1.38;;
71767;SDS011;59604;52.138;5.446;2022-10-19T11:12:53;7.72;;;1.75;;
71767;SDS011;59604;52.138;5.446;2022-10-19T11:15:23;5.53;;;1.20;;
71767;SDS011;59604;52.138;5.446;2022-10-19T11:17:54;5.88;;;1.23;;
71767;SDS011;59604;52.138;5.446;2022-10-19T11:20:23;6.32;;;1.27;;
71767;SDS011;59604;52.138;5.446;2022-10-19T11:23:01;5.68;;;1.20;;
71767;SDS011;59604;52.138;5.446;2022-10-19T11:28:24;6.65;;;1.13;;
71767;SDS011;59604;52.138;5.446;2022-10-19T11:31:18;5.35;;;1.23;;
71767;SDS011;59604;52.138;5.446;2022-10-19T11:33:53;6.03;;;1.65;;
71767;SDS011;59604;52.138;5.446;2022-10-19T11:36:49;4.82;;;1.10;;
71767;SDS011;59604;52.138;5.446;2022-10-19T11:42:23;3.97;;;1.02;;
71767;SDS011;59604;52.138;5.446;2022-10-19T11:56:39;5.55;;;1.42;;
71767;SDS011;59604;52.138;5.446;2022-10-19T12:13:38;6.20;;;1.50;;
71767;SDS011;59604;52.138;5.446;2022-10-19T12:17:09;6.10;;;1.30;;
71767;SDS011;59604;52.138;5.446;2022-10-19T12:19:25;7.95;;;1.23;;
71767;SDS011;59604;52.138;5.446;2022-10-19T12:21:57;8.00;;;2.05;;
71767;SDS011;59604;52.138;5.446;2022-10-19T12:24:26;6.55;;;1.65;;
71767;SDS011;59604;52.138;5.446;2022-10-19T12:26:54;7.95;;;1.75;;
71767;SDS011;59604;52.138;5.446;2022-10-19T12:29:27;6.60;;;1.50;;
71767;SDS011;59604;52.138;5.446;2022-10-19T12:31:58;7.15;;;1.80;;
71767;SDS011;59604;52.138;5.446;2022-10-19T12:37:11;6.85;;;1.77;;
71767;SDS011;59604;52.138;5.446;2022-10-19T12:42:45;8.25;;;1.60;;
71767;SDS011;59604;52.138;5.446;2022-10-19T12:55:58;6.32;;;1.80;;
71767;SDS011;59604;52.138;5.446;2022-10-19T12:58:24;5.85;;;1.70;;
71767;SDS011;59604;52.138;5.446;2022-10-19T13:00:58;5.05;;;1.70;;
71767;SDS011;59604;52.138;5.446;2022-10-19T13:03:33;5.57;;;1.90;;
71767;SDS011;59604;52.138;5.446;2022-10-19T13:06:04;5.45;;;1.83;;
71767;SDS011;59604;52.138;5.446;2022-10-19T13:08:47;6.22;;;2.03;;
71767;SDS011;59604;52.138;5.446;2022-10-19T13:11:21;6.97;;;1.90;;
71767;SDS011;59604;52.138;5.446;2022-10-19T13:16:36;6.50;;;1.80;;
71767;SDS011;59604;52.138;5.446;2022-10-19T13:29:25;7.65;;;2.00;;
71767;SDS011;59604;52.138;5.446;2022-10-19T13:31:54;5.72;;;2.10;;
71767;SDS011;59604;52.138;5.446;2022-10-19T13:34:22;4.63;;;1.60;;
71767;SDS011;59604;52.138;5.446;2022-10-19T13:36:59;8.18;;;1.70;;
71767;SDS011;59604;52.138;5.446;2022-10-19T13:39:28;6.20;;;1.80;;
71767;SDS011;59604;52.138;5.446;2022-10-19T13:41:55;5.82;;;1.88;;
71767;SDS011;59604;52.138;5.446;2022-10-19T13:44:26;7.40;;;2.15;;
71767;SDS011;59604;52.138;5.446;2022-10-19T13:55:13;4.88;;;1.30;;
71767;SDS011;59604;52.138;5.446;2022-10-19T14:04:19;6.93;;;1.42;;
71767;SDS011;59604;52.138;5.446;2022-10-19T14:07:00;4.65;;;1.33;;
71767;SDS011;59604;52.138;5.446;2022-10-19T14:09:57;7.97;;;1.40;;
71767;SDS011;59604;52.138;5.446;2022-10-19T14:12:33;4.53;;;1.30;;
71767;SDS011;59604;52.138;5.446;2022-10-19T14:15:10;3.85;;;1.00;;
71767;SDS011;59604;52.138;5.446;2022-10-19T14:17:44;6.88;;;1.50;;
71767;SDS011;59604;52.138;5.446;2022-10-19T14:20:23;6.63;;;1.20;;
71767;SDS011;59604;52.138;5.446;2022-10-19T14:25:52;5.38;;;1.15;;
71767;SDS011;59604;52.138;5.446;2022-10-19T14:28:22;6.32;;;1.15;;
71767;SDS011;59604;52.138;5.446;2022-10-19T14:30:54;6.00;;;1.00;;
71767;SDS011;59604;52.138;5.446;2022-10-19T14:33:22;8.32;;;1.00;;
71767;SDS011;59604;52.138;5.446;2022-10-19T14:35:50;5.22;;;1.17;;
71767;SDS011;59604;52.138;5.446;2022-10-19T14:38:19;6.68;;;1.00;;
71767;SDS011;59604;52.138;5.446;2022-10-19T14:40:50;5.60;;;1.02;;
71767;SDS011;59604;52.138;5.446;2022-10-19T14:43:25;6.03;;;1.40;;
71767;SDS011;59604;52.138;5.446;2022-10-19T14:48:33;4.35;;;1.10;;
71767;SDS011;59604;52.138;5.446;2022-10-19T14:51:01;4.35;;;1.33;;
71767;SDS011;59604;52.138;5.446;2022-10-19T14:53:36;4.55;;;1.10;;
71767;SDS011;59604;52.138;5.446;2022-10-19T14:56:06;5.80;;;1.30;;
71767;SDS011;59604;52.138;5.446;2022-10-19T14:58:42;4.78;;;1.20;;
71767;SDS011;59604;52.138;5.446;2022-10-19T15:01:19;4.82;;;1.13;;
71767;SDS011;59604;52.138;5.446;2022-10-19T15:03:47;5.47;;;1.30;;
71767;SDS011;59604;52.138;5.446;2022-10-19T15:06:25;4.80;;;1.10;;
71767;SDS011;59604;52.138;5.446;2022-10-19T15:08:59;5.30;;;1.13;;
71767;SDS011;59604;52.138;5.446;2022-10-19T15:11:30;4.00;;;1.30;;
71767;SDS011;59604;52.138;5.446;2022-10-19T15:14:05;6.65;;;1.30;;
71767;SDS011;59604;52.138;5.446;2022-10-19T15:16:54;7.28;;;1.38;;
71767;SDS011;59604;52.138;5.446;2022-10-19T15:19:32;8.07;;;1.85;;
71767;SDS011;59604;52.138;5.446;2022-10-19T15:22:17;5.85;;;1.40;;
71767;SDS011;59604;52.138;5.446;2022-10-19T15:27:21;5.35;;;1.60;;
71767;SDS011;59604;52.138;5.446;2022-10-19T15:30:21;6.75;;;1.42;;
71767;SDS011;59604;52.138;5.446;2022-10-19T15:32:48;4.80;;;1.55;;
71767;SDS011;59604;52.138;5.446;2022-10-19T15:35:17;5.47;;;1.52;;
71767;SDS011;59604;52.138;5.446;2022-10-19T15:37:48;5.10;;;1.70;;
71767;SDS011;59604;52.138;5.446;2022-10-19T15:40:19;6.30;;;1.38;;
71767;SDS011;59604;52.138;5.446;2022-10-19T15:42:50;6.45;;;1.50;;
71767;SDS011;59604;52.138;5.446;2022-10-19T15:45:36;6.47;;;1.65;;
71767;SDS011;59604;52.138;5.446;2022-10-19T15:50:36;6.93;;;1.58;;
71767;SDS011;59604;52.138;5.446;2022-10-19T15:53:07;5.45;;;1.40;;
71767;SDS011;59604;52.138;5.446;2022-10-19T15:55:34;6.88;;;1.60;;
71767;SDS011;59604;52.138;5.446;2022-10-19T15:58:00;4.20;;;1.58;;
71767;SDS011;59604;52.138;5.446;2022-10-19T16:00:27;6.88;;;1.52;;
71767;SDS011;59604;52.138;5.446;2022-10-19T16:02:55;5.97;;;1.70;;
71767;SDS011;59604;52.138;5.446;2022-10-19T16:05:21;6.50;;;1.85;;
71767;SDS011;59604;52.138;5.446;2022-10-19T16:07:48;5.22;;;1.85;;
71767;SDS011;59604;52.138;5.446;2022-10-19T16:10:16;6.82;;;2.38;;
71767;SDS011;59604;52.138;5.446;2022-10-19T16:12:45;6.80;;;2.03;;
71767;SDS011;59604;52.138;5.446;2022-10-19T16:15:12;7.72;;;2.08;;
71767;SDS011;59604;52.138;5.446;2022-10-19T16:17:57;7.68;;;2.20;;
71767;SDS011;59604;52.138;5.446;2022-10-19T16:20:25;7.72;;;2.13;;
71767;SDS011;59604;52.138;5.446;2022-10-19T16:22:54;5.43;;;2.10;;
71767;SDS011;59604;52.138;5.446;2022-10-19T16:25:20;6.75;;;2.28;;
71767;SDS011;59604;52.138;5.446;2022-10-19T16:27:47;6.40;;;2.50;;
71767;SDS011;59604;52.138;5.446;2022-10-19T16:30:13;8.05;;;2.30;;
71767;SDS011;59604;52.138;5.446;2022-10-19T16:32:40;6.57;;;2.30;;
71767;SDS011;59604;52.138;5.446;2022-10-19T16:35:06;8.13;;;2.83;;
71767;SDS011;59604;52.138;5.446;2022-10-19T16:37:35;7.53;;;3.00;;
71767;SDS011;59604;52.138;5.446;2022-10-19T16:40:02;8.93;;;3.45;;
71767;SDS011;59604;52.138;5.446;2022-10-19T16:42:30;9.15;;;3.10;;
71767;SDS011;59604;52.138;5.446;2022-10-19T16:44:57;8.48;;;2.83;;
71767;SDS011;59604;52.138;5.446;2022-10-19T16:47:24;7.63;;;2.80;;
71767;SDS011;59604;52.138;5.446;2022-10-19T16:49:57;7.53;;;3.30;;
71767;SDS011;59604;52.138;5.446;2022-10-19T16:52:27;12.85;;;3.75;;
71767;SDS011;59604;52.138;5.446;2022-10-19T16:54:54;8.75;;;4.25;;
71767;SDS011;59604;52.138;5.446;2022-10-19T16:57:21;8.93;;;3.85;;
71767;SDS011;59604;52.138;5.446;2022-10-19T16:59:49;9.15;;;3.53;;
71767;SDS011;59604;52.138;5.446;2022-10-19T17:02:21;7.65;;;3.28;;
71767;SDS011;59604;52.138;5.446;2022-10-19T17:04:48;9.23;;;3.60;;
71767;SDS011;59604;52.138;5.446;2022-10-19T17:07:14;10.40;;;4.15;;
71767;SDS011;59604;52.138;5.446;2022-10-19T17:09:41;8.75;;;3.92;;
71767;SDS011;59604;52.138;5.446;2022-10-19T17:12:08;9.05;;;4.10;;
71767;SDS011;59604;52.138;5.446;2022-10-19T17:14:37;8.45;;;3.67;;
71767;SDS011;59604;52.138;5.446;2022-10-19T17:17:05;7.97;;;3.90;;
71767;SDS011;59604;52.138;5.446;2022-10-19T17:19:32;6.97;;;3.80;;
71767;SDS011;59604;52.138;5.446;2022-10-19T17:21:59;11.95;;;4.13;;
71767;SDS011;59604;52.138;5.446;2022-10-19T17:24:27;9.77;;;4.68;;
71767;SDS011;59604;52.138;5.446;2022-10-19T17:26:54;11.32;;;4.50;;
71767;SDS011;59604;52.138;5.446;2022-10-19T17:29:21;13.80;;;4.28;;
71767;SDS011;59604;52.138;5.446;2022-10-19T17:31:48;9.55;;;4.32;;
71767;SDS011;59604;52.138;5.446;2022-10-19T17:34:15;8.32;;;4.50;;
71767;SDS011;59604;52.138;5.446;2022-10-19T17:36:42;12.32;;;4.50;;
71767;SDS011;59604;52.138;5.446;2022-10-19T17:39:16;9.35;;;4.40;;
71767;SDS011;59604;52.138;5.446;2022-10-19T17:44:14;8.48;;;4.60;;
71767;SDS011;59604;52.138;5.446;2022-10-19T17:46:41;12.55;;;4.88;;
71767;SDS011;59604;52.138;5.446;2022-10-19T17:49:08;10.52;;;4.50;;